Time;durP1;ratioP1;P1;durP2;ratioP2;P2;SDS_P1;SDS_P2;PMS_P1;PMS_P2;Temp;Humidity;BMP_temperature;BMP_pressure;BME280_temperature;BME280_humidity;BME280_pressure;Samples;Min_cycle;Max_cycle;Signal;HPM_P1;HPM_P2
2021/11/15 00:01:50;;;;;;;0.10;0.10;;;10.70;99.90;;;;;;5094133;28;20028;-82
2021/11/15 00:04:18;;;;;;;0.45;0.45;;;10.70;99.90;;;;;;5094498;28;20028;-82
2021/11/15 00:06:44;;;;;;;0.00;0.00;;;10.60;99.90;;;;;;5094428;28;20046;-82
2021/11/15 00:09:10;;;;;;;0.35;0.30;;;10.70;99.90;;;;;;5093025;28;20028;-82
2021/11/15 00:11:36;;;;;;;0.00;0.00;;;10.60;99.90;;;;;;5075317;28;20038;-82
2021/11/15 00:14:02;;;;;;;3.70;1.27;;;10.60;99.90;;;;;;5093860;28;20032;-82
2021/11/15 00:16:28;;;;;;;0.32;0.32;;;10.60;99.90;;;;;;5093790;28;20495;-82
2021/11/15 00:18:54;;;;;;;0.52;0.10;;;10.70;99.90;;;;;;5093543;28;20445;-82
2021/11/15 00:21:20;;;;;;;0.13;0.13;;;10.60;99.90;;;;;;5093954;28;20113;-82
2021/11/15 00:23:46;;;;;;;0.00;0.00;;;10.60;99.90;;;;;;5094044;28;20032;-82
2021/11/15 00:26:12;;;;;;;0.20;0.20;;;10.60;99.90;;;;;;5093769;28;20432;-82
2021/11/15 00:28:38;;;;;;;0.15;0.10;;;10.50;99.90;;;;;;5093760;28;20095;-83
2021/11/15 00:31:05;;;;;;;0.65;0.50;;;10.50;99.90;;;;;;5093682;28;20016;-82
2021/11/15 00:33:30;;;;;;;0.57;0.32;;;10.40;99.90;;;;;;5093295;28;20042;-82
2021/11/15 00:35:56;;;;;;;0.13;0.13;;;10.30;99.90;;;;;;5093788;28;20494;-82
2021/11/15 00:38:22;;;;;;;0.10;0.10;;;10.20;99.90;;;;;;5093850;28;20036;-82
2021/11/15 00:40:48;;;;;;;0.30;0.30;;;10.10;99.90;;;;;;5092185;28;20024;-82
2021/11/15 00:43:15;;;;;;;1.20;0.85;;;10.10;99.90;;;;;;5093363;28;20020;-82
2021/11/15 00:45:40;;;;;;;0.45;0.22;;;10.00;99.90;;;;;;5093612;28;20028;-82
2021/11/15 00:48:06;;;;;;;0.00;0.00;;;9.90;99.90;;;;;;5093169;28;20036;-82
2021/11/15 00:50:33;;;;;;;0.00;0.00;;;9.90;99.90;;;;;;5092952;28;20024;-82
2021/11/15 00:52:59;;;;;;;0.00;0.00;;;9.90;99.90;;;;;;5075127;28;20491;-82
2021/11/15 00:55:26;;;;;;;0.17;0.17;;;9.80;99.90;;;;;;5093517;28;20107;-83
2021/11/15 00:57:53;;;;;;;0.00;0.00;;;9.70;99.90;;;;;;5091635;28;20034;-82
2021/11/15 01:00:23;;;;;;;0.05;0.05;;;9.70;99.90;;;;;;5093240;28;20039;-82
2021/11/15 01:02:49;;;;;;;0.00;0.00;;;9.60;99.90;;;;;;5092889;28;20024;-82
2021/11/15 01:05:16;;;;;;;0.03;0.03;;;9.60;99.90;;;;;;5075024;28;20437;-82
2021/11/15 01:07:42;;;;;;;0.00;0.00;;;9.50;99.90;;;;;;5093250;28;20073;-82
2021/11/15 01:10:11;;;;;;;3.92;0.30;;;9.50;99.90;;;;;;5092541;28;20067;-83
2021/11/15 01:12:37;;;;;;;4.68;0.13;;;9.40;99.90;;;;;;5092613;28;20475;-82
2021/11/15 01:15:08;;;;;;;0.00;0.00;;;9.40;99.90;;;;;;5092893;28;20027;-82
2021/11/15 01:17:34;;;;;;;1.35;1.25;;;9.40;99.90;;;;;;5092392;28;20031;-82
2021/11/15 01:20:00;;;;;;;0.47;0.30;;;9.30;99.90;;;;;;5092788;28;20066;-82
2021/11/15 01:22:26;;;;;;;0.00;0.00;;;9.30;99.90;;;;;;5092811;28;20567;-82
2021/11/15 01:24:52;;;;;;;0.88;0.40;;;9.20;99.90;;;;;;5093146;28;20024;-83
2021/11/15 01:27:18;;;;;;;0.05;0.05;;;9.20;99.90;;;;;;5074442;28;20528;-83
2021/11/15 01:29:45;;;;;;;0.10;0.10;;;9.20;99.90;;;;;;5092735;28;20031;-82
2021/11/15 01:32:11;;;;;;;0.15;0.15;;;9.10;99.90;;;;;;5092406;28;20035;-82
2021/11/15 01:34:37;;;;;;;0.00;0.00;;;9.10;99.90;;;;;;5092726;28;20028;-82
2021/11/15 01:37:03;;;;;;;0.00;0.00;;;9.00;99.90;;;;;;5092817;28;20441;-82
2021/11/15 01:39:29;;;;;;;0.00;0.00;;;9.00;99.90;;;;;;5092334;28;20599;-82
2021/11/15 01:41:55;;;;;;;0.25;0.25;;;9.00;99.90;;;;;;5092125;28;20035;-82
2021/11/15 01:44:21;;;;;;;0.00;0.00;;;9.00;99.90;;;;;;5092749;28;20024;-83
2021/11/15 01:46:47;;;;;;;0.00;0.00;;;8.90;99.90;;;;;;5093407;28;20084;-82
2021/11/15 01:49:13;;;;;;;0.43;0.20;;;8.90;99.90;;;;;;5081266;28;20040;-82
2021/11/15 01:51:38;;;;;;;0.20;0.20;;;8.90;99.90;;;;;;5098870;28;20071;-83
2021/11/15 01:54:04;;;;;;;0.00;0.00;;;8.90;99.90;;;;;;5099270;28;20016;-83
2021/11/15 01:56:30;;;;;;;0.00;0.00;;;8.80;99.90;;;;;;5080793;28;20077;-83
2021/11/15 01:58:55;;;;;;;0.00;0.00;;;8.80;99.90;;;;;;5098067;28;20024;-82
2021/11/15 02:01:21;;;;;;;0.10;0.05;;;8.80;99.90;;;;;;5099204;28;20028;-83
2021/11/15 02:03:47;;;;;;;0.00;0.00;;;8.80;99.90;;;;;;5098941;28;20542;-83
2021/11/15 02:06:13;;;;;;;0.00;0.00;;;8.80;99.90;;;;;;5099241;28;20028;-82
2021/11/15 02:08:39;;;;;;;0.88;0.30;;;8.80;99.90;;;;;;5098697;28;20087;-82
2021/11/15 02:11:05;;;;;;;0.30;0.20;;;8.70;99.90;;;;;;5098882;28;20036;-83
2021/11/15 02:13:32;;;;;;;0.05;0.05;;;8.70;99.90;;;;;;5099239;28;20141;-82
2021/11/15 02:15:58;;;;;;;0.10;0.10;;;8.70;99.90;;;;;;5098890;28;20497;-83
2021/11/15 02:18:24;;;;;;;0.63;0.63;;;8.60;99.90;;;;;;5080503;28;20024;-82
2021/11/15 02:21:05;;;;;;;0.05;0.05;;;8.60;99.90;;;;;;5099061;28;20093;-82
2021/11/15 02:23:33;;;;;;;0.05;0.05;;;8.60;99.90;;;;;;5099093;28;20017;-82
2021/11/15 02:26:01;;;;;;;2.03;0.63;;;8.60;99.90;;;;;;5098752;28;20367;-82
2021/11/15 02:28:30;;;;;;;0.25;0.25;;;8.60;99.90;;;;;;5098969;28;20110;-82
2021/11/15 02:30:56;;;;;;;1.35;0.35;;;8.50;99.90;;;;;;5099038;28;20031;-83
2021/11/15 02:33:22;;;;;;;0.00;0.00;;;8.50;99.90;;;;;;5098710;28;20035;-83
2021/11/15 02:35:48;;;;;;;0.10;0.10;;;8.50;99.90;;;;;;5099131;28;20024;-83
2021/11/15 02:38:15;;;;;;;0.20;0.20;;;8.50;99.90;;;;;;5097691;28;20040;-83
2021/11/15 02:40:41;;;;;;;0.15;0.15;;;8.40;99.90;;;;;;5098709;28;20027;-83
2021/11/15 02:43:07;;;;;;;0.13;0.13;;;8.40;99.90;;;;;;5080731;28;20036;-83
2021/11/15 02:45:33;;;;;;;0.10;0.10;;;8.40;99.90;;;;;;5098782;28;20376;-82
2021/11/15 02:47:59;;;;;;;0.00;0.00;;;8.40;99.90;;;;;;5098323;28;20510;-82
2021/11/15 02:50:28;;;;;;;0.38;0.38;;;8.30;99.90;;;;;;5098241;28;20114;-82
2021/11/15 02:52:57;;;;;;;0.50;0.40;;;8.30;99.90;;;;;;5098543;28;20055;-82
2021/11/15 02:55:24;;;;;;;0.52;0.52;;;8.30;99.90;;;;;;5098858;28;20383;-83
2021/11/15 02:57:51;;;;;;;0.00;0.00;;;8.30;99.90;;;;;;5098528;28;20023;-82
2021/11/15 03:00:38;;;;;;;0.73;0.73;;;8.20;99.90;;;;;;5092981;28;20032;-83
2021/11/15 03:03:04;;;;;;;0.20;0.20;;;8.30;99.90;;;;;;5095331;28;20402;-83
2021/11/15 03:05:36;;;;;;;0.22;0.20;;;8.20;99.90;;;;;;5095587;28;20055;-83
2021/11/15 03:08:03;;;;;;;0.00;0.00;;;8.20;99.90;;;;;;5095095;28;20450;-82
2021/11/15 03:10:29;;;;;;;0.10;0.10;;;8.20;99.90;;;;;;5095259;28;20051;-83
2021/11/15 03:12:56;;;;;;;0.45;0.40;;;8.20;99.90;;;;;;5094411;28;20465;-83
2021/11/15 03:15:28;;;;;;;0.00;0.00;;;8.20;99.90;;;;;;5095203;28;20039;-83
2021/11/15 03:18:02;;;;;;;0.10;0.10;;;8.20;99.90;;;;;;5076747;28;20032;-82
2021/11/15 03:20:34;;;;;;;0.15;0.15;;;8.20;99.90;;;;;;5095289;28;20032;-82
2021/11/15 03:23:05;;;;;;;1.77;1.67;;;8.20;99.90;;;;;;5076929;28;20069;-82
2021/11/15 03:25:31;;;;;;;0.20;0.20;;;8.20;99.90;;;;;;5095147;28;20028;-83
2021/11/15 03:27:58;;;;;;;0.30;0.30;;;8.20;99.90;;;;;;5095338;28;20521;-83
2021/11/15 03:30:24;;;;;;;1.10;0.57;;;8.20;99.90;;;;;;5094917;28;20099;-83
2021/11/15 03:32:51;;;;;;;0.30;0.30;;;8.20;99.90;;;;;;5076424;28;20394;-83
2021/11/15 03:35:17;;;;;;;1.30;0.55;;;8.20;99.90;;;;;;5094940;28;20028;-83
2021/11/15 03:37:43;;;;;;;6.03;1.10;;;8.20;99.90;;;;;;5094837;28;20110;-82
2021/11/15 03:40:19;;;;;;;0.13;0.08;;;8.10;99.90;;;;;;5094770;28;20030;-83
2021/11/15 03:42:45;;;;;;;0.40;0.30;;;8.10;99.90;;;;;;5094837;28;20047;-82
2021/11/15 03:45:13;;;;;;;1.17;0.55;;;8.10;99.90;;;;;;5094762;28;20024;-82
2021/11/15 03:47:39;;;;;;;0.60;0.57;;;8.10;99.90;;;;;;5094541;28;20422;-82
2021/11/15 03:50:06;;;;;;;3.45;1.08;;;8.10;99.90;;;;;;5075820;28;20031;-82
2021/11/15 03:52:32;;;;;;;0.10;0.10;;;8.10;99.90;;;;;;5094380;28;20020;-83
2021/11/15 03:54:58;;;;;;;0.20;0.20;;;8.00;99.90;;;;;;5094525;28;20509;-83
2021/11/15 03:57:24;;;;;;;0.38;0.30;;;8.00;99.90;;;;;;5094409;28;20099;-83
2021/11/15 03:59:49;;;;;;;0.98;0.98;;;7.90;99.90;;;;;;5093030;28;20046;-82
2021/11/15 04:02:17;;;;;;;0.25;0.25;;;7.90;99.90;;;;;;5093977;28;20025;-82
2021/11/15 04:04:53;;;;;;;2.05;0.77;;;7.80;99.90;;;;;;5094371;28;20028;-83
2021/11/15 04:07:38;;;;;;;0.65;0.65;;;7.80;99.90;;;;;;5094211;28;20020;-83
2021/11/15 04:10:15;;;;;;;0.77;0.77;;;7.80;99.90;;;;;;5093178;28;20032;-82
2021/11/15 04:12:42;;;;;;;3.58;0.63;;;7.80;99.90;;;;;;5094141;28;20574;-82
2021/11/15 04:15:11;;;;;;;0.85;0.65;;;7.70;99.90;;;;;;5094015;28;20494;-83
2021/11/15 04:17:37;;;;;;;3.60;1.50;;;7.60;99.90;;;;;;5074154;28;20020;-82
2021/11/15 04:20:06;;;;;;;1.85;1.00;;;7.50;99.90;;;;;;5075520;28;20032;-83
2021/11/15 04:22:32;;;;;;;0.57;0.57;;;7.50;99.90;;;;;;5075873;28;20052;-83
2021/11/15 04:24:58;;;;;;;0.68;0.68;;;7.50;99.90;;;;;;5076001;28;20059;-82
2021/11/15 04:27:23;;;;;;;2.42;0.77;;;7.40;99.90;;;;;;5093671;28;20123;-83
2021/11/15 04:29:49;;;;;;;0.95;0.95;;;7.40;99.90;;;;;;5094058;28;20433;-83
2021/11/15 04:32:14;;;;;;;0.22;0.22;;;7.30;99.90;;;;;;5075088;28;20024;-82
2021/11/15 04:34:40;;;;;;;0.10;0.10;;;7.30;99.90;;;;;;5093882;28;20115;-83
2021/11/15 04:37:06;;;;;;;0.00;0.00;;;7.30;99.90;;;;;;5093970;28;20032;-83
2021/11/15 04:39:32;;;;;;;1.27;0.38;;;7.20;99.90;;;;;;5093678;28;20028;-83
2021/11/15 04:41:58;;;;;;;0.20;0.20;;;7.20;99.90;;;;;;5093292;28;20544;-82
2021/11/15 04:44:24;;;;;;;3.33;1.10;;;7.10;99.90;;;;;;5093553;28;20024;-82
2021/11/15 04:46:50;;;;;;;0.55;0.55;;;7.10;99.90;;;;;;5093304;28;20020;-82
2021/11/15 04:49:15;;;;;;;0.20;0.20;;;7.00;99.90;;;;;;5092996;28;20052;-83
2021/11/15 04:51:41;;;;;;;0.00;0.00;;;7.00;99.90;;;;;;5093000;28;20024;-82
2021/11/15 04:54:07;;;;;;;2.72;0.77;;;7.00;99.90;;;;;;5093384;28;20032;-83
2021/11/15 04:56:33;;;;;;;1.27;0.40;;;6.90;99.90;;;;;;5093079;28;20402;-83
2021/11/15 04:59:00;;;;;;;0.55;0.55;;;7.00;99.90;;;;;;5093093;28;20028;-82
2021/11/15 05:01:26;;;;;;;0.20;0.20;;;7.00;99.90;;;;;;5092001;28;20074;-83
2021/11/15 05:03:51;;;;;;;0.08;0.08;;;7.00;99.90;;;;;;5092914;28;20032;-82
2021/11/15 05:06:17;;;;;;;0.00;0.00;;;7.00;99.90;;;;;;5093141;28;20423;-83
2021/11/15 05:08:43;;;;;;;0.70;0.70;;;6.90;99.90;;;;;;5075066;28;20364;-83
2021/11/15 05:11:09;;;;;;;15.52;0.47;;;6.90;99.90;;;;;;5091970;28;20063;-83
2021/11/15 05:13:37;;;;;;;2.45;0.88;;;6.90;99.90;;;;;;5093526;28;20505;-83
2021/11/15 05:16:03;;;;;;;0.28;0.20;;;6.90;99.90;;;;;;5091679;28;20028;-82
2021/11/15 05:18:29;;;;;;;0.90;0.90;;;6.80;99.90;;;;;;5092037;28;20024;-83
2021/11/15 05:20:55;;;;;;;0.38;0.38;;;6.80;99.90;;;;;;5092810;28;20102;-83
2021/11/15 05:23:20;;;;;;;0.73;0.55;;;6.80;99.90;;;;;;5092625;28;20031;-82
2021/11/15 05:25:46;;;;;;;0.10;0.10;;;6.80;99.90;;;;;;5093505;28;20020;-83
2021/11/15 05:28:12;;;;;;;9.10;0.52;;;6.80;99.90;;;;;;5092739;28;20510;-83
2021/11/15 05:30:37;;;;;;;0.73;0.70;;;6.70;99.90;;;;;;5092826;28;20494;-82
2021/11/15 05:33:03;;;;;;;0.17;0.17;;;6.70;99.90;;;;;;5091170;28;20028;-82
2021/11/15 05:35:29;;;;;;;17.60;1.13;;;6.60;99.90;;;;;;5074746;28;20410;-83
2021/11/15 05:37:56;;;;;;;0.65;0.65;;;6.60;99.90;;;;;;5092790;28;20103;-82
2021/11/15 05:40:23;;;;;;;0.40;0.40;;;6.60;99.90;;;;;;5092686;28;20459;-83
2021/11/15 05:42:50;;;;;;;0.20;0.20;;;6.60;99.90;;;;;;5074648;28;20402;-83
2021/11/15 05:45:16;;;;;;;0.03;0.03;;;6.70;99.90;;;;;;5092701;28;20070;-83
2021/11/15 05:47:42;;;;;;;1.33;1.25;;;6.70;99.90;;;;;;5092547;28;20062;-82
2021/11/15 05:50:09;;;;;;;0.60;0.60;;;6.70;99.90;;;;;;5092198;28;20024;-82
2021/11/15 05:52:40;;;;;;;0.30;0.30;;;6.70;99.90;;;;;;5092347;28;20027;-83
2021/11/15 05:55:08;;;;;;;11.40;2.08;;;6.70;99.90;;;;;;5092670;28;20157;-83
2021/11/15 05:57:33;;;;;;;2.95;0.25;;;6.70;99.90;;;;;;5092043;28;20028;-83
2021/11/15 05:59:59;;;;;;;0.10;0.10;;;6.60;99.90;;;;;;5092031;28;20031;-82
2021/11/15 06:02:25;;;;;;;1.13;1.00;;;6.60;99.90;;;;;;5089908;28;20035;-83
2021/11/15 06:04:50;;;;;;;1.58;0.73;;;6.60;99.90;;;;;;5092470;28;20012;-82
2021/11/15 06:07:16;;;;;;;0.00;0.00;;;6.60;99.90;;;;;;5092284;28;20101;-83
2021/11/15 06:09:42;;;;;;;1.42;0.90;;;6.60;99.90;;;;;;5092090;28;20078;-83
2021/11/15 06:12:08;;;;;;;2.83;0.80;;;6.60;99.90;;;;;;5091987;28;20372;-82
2021/11/15 06:14:34;;;;;;;0.45;0.45;;;6.60;99.90;;;;;;5091742;28;20062;-82
2021/11/15 06:17:00;;;;;;;0.00;0.00;;;6.60;99.90;;;;;;5091642;28;20068;-82
2021/11/15 06:19:26;;;;;;;0.93;0.47;;;6.60;99.90;;;;;;5092297;28;20028;-82
2021/11/15 06:21:51;;;;;;;0.63;0.63;;;6.60;99.90;;;;;;5092182;28;20035;-82
2021/11/15 06:24:17;;;;;;;6.35;2.88;;;6.60;99.90;;;;;;5074179;28;20115;-82
2021/11/15 06:26:43;;;;;;;0.10;0.10;;;6.60;99.90;;;;;;5091822;28;20125;-82
2021/11/15 06:29:09;;;;;;;0.32;0.32;;;6.50;99.90;;;;;;5072366;28;20020;-82
2021/11/15 06:31:35;;;;;;;0.38;0.38;;;6.60;99.90;;;;;;5091392;28;20569;-82
2021/11/15 06:34:01;;;;;;;3.10;1.30;;;6.60;99.90;;;;;;5105041;28;20028;-83
2021/11/15 06:36:27;;;;;;;2.90;1.65;;;6.60;99.90;;;;;;5089906;28;20039;-83
2021/11/15 06:38:54;;;;;;;3.20;1.00;;;6.70;99.90;;;;;;5076593;28;20028;-82
2021/11/15 06:41:21;;;;;;;2.63;1.65;;;6.70;99.90;;;;;;5093216;28;20372;-82
2021/11/15 06:43:47;;;;;;;1.00;1.00;;;6.80;99.90;;;;;;5097220;28;20024;-82
2021/11/15 06:46:14;;;;;;;0.25;0.25;;;6.80;99.90;;;;;;5109823;28;20025;-82
2021/11/15 06:48:43;;;;;;;1.38;1.30;;;6.80;99.90;;;;;;5094841;28;20027;-82
2021/11/15 06:51:10;;;;;;;4.20;0.55;;;6.90;99.90;;;;;;5076813;28;20516;-82
2021/11/15 06:53:38;;;;;;;0.90;0.90;;;7.00;99.90;;;;;;5102406;28;20035;-82
2021/11/15 06:56:06;;;;;;;3.83;1.50;;;7.10;99.90;;;;;;5077630;28;20031;-83
2021/11/15 06:58:32;;;;;;;1.90;1.77;;;7.10;99.90;;;;;;5102678;28;20031;-83
2021/11/15 07:00:58;;;;;;;1.02;0.90;;;7.10;99.90;;;;;;5106663;28;20054;-83
2021/11/15 07:03:24;;;;;;;4.88;0.73;;;7.20;99.90;;;;;;5098899;28;20474;-83
2021/11/15 07:05:49;;;;;;;2.30;2.20;;;7.20;99.90;;;;;;5093630;28;20056;-82
2021/11/15 07:08:18;;;;;;;0.10;0.10;;;7.20;99.90;;;;;;5093553;28;20471;-83
2021/11/15 07:10:44;;;;;;;0.50;0.50;;;7.30;99.90;;;;;;5078160;28;20059;-83
2021/11/15 07:13:12;;;;;;;0.47;0.47;;;7.30;99.90;;;;;;5088593;28;20102;-82
2021/11/15 07:15:38;;;;;;;0.50;0.50;;;7.40;99.90;;;;;;5103582;28;20111;-83
2021/11/15 07:18:04;;;;;;;3.38;1.77;;;7.50;99.90;;;;;;5112555;28;20114;-83
2021/11/15 07:20:29;;;;;;;0.60;0.60;;;7.50;99.90;;;;;;5091073;28;20107;-81
2021/11/15 07:22:55;;;;;;;5.82;1.25;;;7.50;99.90;;;;;;5102700;28;20488;-83
2021/11/15 07:25:21;;;;;;;1.98;1.25;;;7.60;99.90;;;;;;5109627;28;20055;-83
2021/11/15 07:27:49;;;;;;;0.77;0.77;;;7.60;99.90;;;;;;5097696;28;20414;-82
2021/11/15 07:30:16;;;;;;;0.80;0.80;;;7.60;99.90;;;;;;5104608;28;20033;-83
2021/11/15 07:32:41;;;;;;;0.10;0.10;;;7.70;99.90;;;;;;5093681;28;20095;-80
2021/11/15 07:35:10;;;;;;;0.05;0.05;;;7.70;99.90;;;;;;5073525;28;20162;-83
2021/11/15 07:37:36;;;;;;;0.45;0.45;;;7.80;99.90;;;;;;5097409;28;20103;-83
2021/11/15 07:40:05;;;;;;;2.17;1.20;;;7.80;99.90;;;;;;5096619;28;20099;-83
2021/11/15 07:42:32;;;;;;;2.25;1.05;;;7.80;99.90;;;;;;5087581;28;20020;-83
2021/11/15 07:44:58;;;;;;;0.95;0.75;;;7.90;99.90;;;;;;5104971;28;20604;-83
2021/11/15 07:47:24;;;;;;;0.43;0.43;;;7.90;99.90;;;;;;5095290;28;20099;-83
2021/11/15 07:49:50;;;;;;;1.33;1.02;;;7.90;99.90;;;;;;5092732;28;20028;-83
2021/11/15 07:52:16;;;;;;;0.65;0.55;;;7.90;99.90;;;;;;5097408;28;20052;-82
2021/11/15 07:54:44;;;;;;;2.88;2.03;;;7.90;99.90;;;;;;5091176;28;20023;-82
2021/11/15 07:57:10;;;;;;;2.97;1.85;;;8.00;99.90;;;;;;5089577;28;20024;-83
2021/11/15 07:59:39;;;;;;;1.13;1.05;;;8.00;99.90;;;;;;5097014;28;20042;-76
2021/11/15 08:02:05;;;;;;;0.63;0.63;;;8.10;99.90;;;;;;5094349;28;20039;-76
2021/11/15 08:04:32;;;;;;;0.38;0.38;;;8.10;99.90;;;;;;5083090;28;20017;-77
2021/11/15 08:06:58;;;;;;;0.20;0.20;;;8.30;99.90;;;;;;5091608;28;20190;-79
2021/11/15 08:09:25;;;;;;;0.68;0.65;;;8.30;99.90;;;;;;5086560;28;20616;-76
2021/11/15 08:11:52;;;;;;;1.65;1.55;;;8.40;99.90;;;;;;5089653;28;20031;-76
2021/11/15 08:14:18;;;;;;;0.75;0.57;;;8.50;99.90;;;;;;5095548;28;20077;-75
2021/11/15 08:16:44;;;;;;;17.52;1.55;;;8.50;99.90;;;;;;5090781;28;20020;-79
2021/11/15 08:19:10;;;;;;;1.88;0.95;;;8.50;99.90;;;;;;5092288;28;20034;-79
2021/11/15 08:21:36;;;;;;;0.73;0.73;;;8.60;99.90;;;;;;5085623;28;20036;-77
2021/11/15 08:24:25;;;;;;;1.98;0.85;;;8.60;99.90;;;;;;5107888;28;20024;-77
2021/11/15 08:26:59;;;;;;;0.20;0.20;;;8.70;99.90;;;;;;5074496;28;20414;-76
2021/11/15 08:29:33;;;;;;;0.13;0.13;;;8.80;99.90;;;;;;5098937;28;20016;-79
2021/11/15 08:32:06;;;;;;;2.10;0.93;;;8.90;99.90;;;;;;5093551;28;20032;-76
2021/11/15 08:34:35;;;;;;;1.88;1.77;;;8.90;99.90;;;;;;5093923;28;20118;-76
2021/11/15 08:37:02;;;;;;;4.22;1.60;;;9.00;99.90;;;;;;5092011;28;20099;-75
2021/11/15 08:39:30;;;;;;;0.28;0.28;;;9.10;99.90;;;;;;5107264;28;20039;-77
2021/11/15 08:42:03;;;;;;;0.40;0.40;;;9.10;99.90;;;;;;5093911;28;20024;-77
2021/11/15 08:44:29;;;;;;;0.20;0.20;;;9.20;99.90;;;;;;5096272;28;20024;-77
2021/11/15 08:46:57;;;;;;;1.05;1.00;;;9.30;99.90;;;;;;5097461;28;20115;-75
2021/11/15 08:49:29;;;;;;;0.82;0.82;;;9.30;99.90;;;;;;5090297;28;20032;-74
2021/11/15 08:51:55;;;;;;;0.15;0.15;;;9.40;99.90;;;;;;5095537;28;20023;-76
2021/11/15 08:54:22;;;;;;;0.55;0.50;;;9.40;99.90;;;;;;5096726;28;20379;-77
2021/11/15 08:57:07;;;;;;;0.85;0.85;;;9.40;99.90;;;;;;5070911;28;20024;-76
2021/11/15 08:59:33;;;;;;;0.40;0.25;;;9.50;99.90;;;;;;5090502;28;20478;-76
2021/11/15 09:02:00;;;;;;;1.85;0.70;;;9.50;99.90;;;;;;5085033;28;20126;-76
2021/11/15 09:04:26;;;;;;;0.90;0.85;;;9.60;99.90;;;;;;5103645;28;20031;-76
2021/11/15 09:06:52;;;;;;;3.15;1.30;;;9.60;99.90;;;;;;5094685;28;20020;-75
2021/11/15 09:09:19;;;;;;;5.82;0.88;;;9.70;99.90;;;;;;5089461;28;20127;-76
2021/11/15 09:11:47;;;;;;;5.03;1.15;;;9.80;99.90;;;;;;5097042;28;20048;-76
2021/11/15 09:14:15;;;;;;;5.15;2.28;;;9.80;99.90;;;;;;5091341;28;20035;-75
2021/11/15 09:16:42;;;;;;;4.38;0.50;;;9.80;99.90;;;;;;5087836;28;20429;-75
2021/11/15 09:19:09;;;;;;;2.42;1.00;;;9.90;99.90;;;;;;5093768;28;20032;-75
2021/11/15 09:21:35;;;;;;;2.13;2.03;;;10.00;99.90;;;;;;5089199;28;20036;-75
2021/11/15 09:24:01;;;;;;;0.25;0.25;;;10.00;99.90;;;;;;5090005;28;20125;-75
2021/11/15 09:26:27;;;;;;;0.45;0.45;;;10.10;99.90;;;;;;5088720;28;20044;-74
2021/11/15 09:29:01;;;;;;;0.75;0.65;;;10.10;99.90;;;;;;5098763;28;20016;-76
2021/11/15 09:31:28;;;;;;;2.90;0.98;;;10.30;99.90;;;;;;5088736;28;20526;-75
2021/11/15 09:33:54;;;;;;;0.10;0.10;;;10.40;99.90;;;;;;5085216;28;20043;-75
2021/11/15 09:36:23;;;;;;;0.20;0.20;;;10.50;99.90;;;;;;5088235;28;20016;-75
2021/11/15 09:38:51;;;;;;;2.85;0.90;;;10.40;99.90;;;;;;5070452;28;20081;-75
2021/11/15 09:41:16;;;;;;;0.75;0.75;;;10.40;99.90;;;;;;5095703;28;20027;-76
2021/11/15 09:43:42;;;;;;;0.43;0.25;;;10.40;99.90;;;;;;5089712;28;20032;-76
2021/11/15 09:46:14;;;;;;;4.57;2.60;;;10.30;99.90;;;;;;5088863;28;20027;-76
2021/11/15 09:48:47;;;;;;;0.30;0.30;;;10.30;99.90;;;;;;5095057;28;20032;-75
2021/11/15 09:51:13;;;;;;;;;;;10.40;99.90;;;;;;5086459;28;20030;-76
2021/11/15 09:53:39;;;;;;;1.05;1.05;;;10.40;99.90;;;;;;5107690;28;19915;-77
2021/11/15 09:56:08;;;;;;;3.95;1.08;;;10.30;99.90;;;;;;5069661;28;20028;-76
2021/11/15 09:58:35;;;;;;;0.55;0.55;;;10.30;99.90;;;;;;5092886;28;20044;-74
2021/11/15 10:01:01;;;;;;;0.25;0.20;;;10.40;99.90;;;;;;5078379;28;20982;-75
2021/11/15 10:03:27;;;;;;;1.58;0.57;;;10.30;99.90;;;;;;5085554;28;20448;-74
2021/11/15 10:05:54;;;;;;;3.60;0.55;;;10.30;99.90;;;;;;5089811;28;20031;-75
2021/11/15 10:08:20;;;;;;;2.17;0.88;;;10.40;99.90;;;;;;5083331;28;20039;-74
2021/11/15 10:10:56;;;;;;;0.68;0.68;;;10.30;99.90;;;;;;5091655;28;20203;-75
2021/11/15 10:13:42;;;;;;;3.50;0.88;;;10.30;99.90;;;;;;5099892;28;20070;-75
2021/11/15 10:16:12;;;;;;;1.10;0.47;;;10.20;99.90;;;;;;5094484;28;20066;-75
2021/11/15 10:18:43;;;;;;;1.67;1.20;;;10.20;99.90;;;;;;5111340;28;20020;-76
2021/11/15 10:21:25;;;;;;;0.70;0.70;;;10.10;99.90;;;;;;5097492;28;20032;-76
2021/11/15 10:24:11;;;;;;;6.35;2.75;;;10.10;99.90;;;;;;5095912;28;20052;-77
2021/11/15 10:26:40;;;;;;;2.80;0.68;;;10.10;99.90;;;;;;5096940;28;20396;-77
2021/11/15 10:29:22;;;;;;;2.65;0.65;;;10.10;99.90;;;;;;5102790;28;20024;-78
2021/11/15 10:32:04;;;;;;;0.45;0.45;;;10.20;99.90;;;;;;5073708;28;20070;-76
2021/11/15 10:34:38;;;;;;;1.08;0.95;;;10.20;99.90;;;;;;5093661;28;20031;-76
2021/11/15 10:37:19;;;;;;;0.30;0.30;;;10.20;99.90;;;;;;5100166;28;20471;-78
2021/11/15 10:40:13;;;;;;;0.65;0.65;;;10.20;99.90;;;;;;5089243;28;20028;-78
2021/11/15 10:42:45;;;;;;;2.00;1.00;;;10.10;99.90;;;;;;5091864;28;20126;-77
2021/11/15 10:45:13;;;;;;;0.77;0.68;;;10.10;99.90;;;;;;5090791;28;20023;-77
2021/11/15 10:47:45;;;;;;;12.25;1.65;;;10.10;99.90;;;;;;5085135;28;20051;-76
2021/11/15 10:50:21;;;;;;;1.77;1.65;;;10.10;99.90;;;;;;5105179;28;20063;-76
2021/11/15 10:53:07;;;;;;;0.73;0.70;;;10.00;99.90;;;;;;5093671;28;20777;-78
2021/11/15 10:55:37;;;;;;;1.33;1.17;;;10.10;99.90;;;;;;5086084;28;20024;-77
2021/11/15 10:58:23;;;;;;;4.05;2.05;;;10.10;99.90;;;;;;5096174;28;20504;-76
2021/11/15 11:00:54;;;;;;;0.10;0.10;;;10.20;99.90;;;;;;5100361;28;20495;-76
2021/11/15 11:03:22;;;;;;;1.55;1.45;;;10.30;99.90;;;;;;5092334;28;20103;-76
2021/11/15 11:05:51;;;;;;;1.77;1.35;;;10.40;99.90;;;;;;5101534;28;20380;-76
2021/11/15 11:08:26;;;;;;;2.15;0.22;;;10.50;99.90;;;;;;5095174;28;20032;-76
2021/11/15 11:11:04;;;;;;;0.30;0.30;;;10.50;99.90;;;;;;5086788;28;20103;-76
2021/11/15 11:13:46;;;;;;;2.10;1.90;;;10.50;99.90;;;;;;5089274;28;20024;-75
2021/11/15 11:16:11;;;;;;;2.30;0.77;;;10.50;99.90;;;;;;5089322;28;20417;-75
2021/11/15 11:21:30;;;;;;;0.70;0.38;;;10.70;99.90;;;;;;5092552;28;20079;-75
2021/11/15 11:26:33;;;;;;;0.57;0.40;;;11.10;99.90;;;;;;5098335;28;20097;-75
2021/11/15 11:29:15;;;;;;;0.40;0.20;;;11.10;99.90;;;;;;5104588;28;20024;-75
2021/11/15 11:31:52;;;;;;;0.40;0.40;;;11.30;99.90;;;;;;5106818;28;20031;-75
2021/11/15 11:34:19;;;;;;;0.00;0.00;;;11.30;99.90;;;;;;5091499;28;20092;-75
2021/11/15 11:36:45;;;;;;;2.05;0.85;;;11.40;99.90;;;;;;5093323;28;20032;-76
2021/11/15 11:39:12;;;;;;;1.27;0.17;;;11.60;99.90;;;;;;5091984;28;20024;-77
2021/11/15 11:41:43;;;;;;;0.08;0.08;;;11.70;99.90;;;;;;5092710;28;20406;-78
2021/11/15 11:44:12;;;;;;;10.02;0.75;;;11.90;99.90;;;;;;5077074;28;20600;-76
2021/11/15 11:46:39;;;;;;;0.57;0.20;;;12.00;99.90;;;;;;5072866;28;20046;-76
2021/11/15 11:49:11;;;;;;;0.50;0.50;;;12.10;99.90;;;;;;5073078;28;20032;-76
2021/11/15 11:51:39;;;;;;;2.25;1.40;;;12.30;99.90;;;;;;5089592;28;20036;-76
2021/11/15 11:54:27;;;;;;;4.70;1.35;;;12.60;99.90;;;;;;5092647;28;20023;-74
2021/11/15 11:57:02;;;;;;;0.65;0.22;;;12.50;99.90;;;;;;5092056;28;20107;-76
2021/11/15 11:59:28;;;;;;;5.50;1.65;;;12.40;99.90;;;;;;5091861;28;20272;-76
2021/11/15 12:02:04;;;;;;;1.42;0.70;;;12.50;99.90;;;;;;5093003;28;20104;-76
2021/11/15 12:04:31;;;;;;;0.22;0.22;;;12.50;99.90;;;;;;5058512;28;20024;-75
2021/11/15 12:06:57;;;;;;;0.52;0.30;;;12.10;99.90;;;;;;5089090;28;20146;-76
2021/11/15 12:09:42;;;;;;;0.75;0.70;;;12.40;99.90;;;;;;5092946;28;20058;-75
2021/11/15 12:12:07;;;;;;;0.05;0.05;;;12.40;99.90;;;;;;5090749;28;20459;-75
2021/11/15 12:14:42;;;;;;;1.08;0.43;;;12.50;99.90;;;;;;5090782;28;20062;-76
2021/11/15 12:17:17;;;;;;;1.13;0.30;;;13.10;99.90;;;;;;5103311;28;20080;-76
2021/11/15 12:20:03;;;;;;;0.90;0.40;;;13.30;99.90;;;;;;5093191;28;20101;-76
2021/11/15 12:22:43;;;;;;;0.30;0.30;;;13.30;99.90;;;;;;5092602;28;20027;-75
2021/11/15 12:25:22;;;;;;;0.38;0.38;;;12.80;99.90;;;;;;5088299;28;20024;-75
2021/11/15 12:27:54;;;;;;;1.75;0.38;;;12.60;99.90;;;;;;5071863;28;20442;-76
2021/11/15 12:30:24;;;;;;;0.17;0.17;;;12.20;99.90;;;;;;5092191;28;20103;-75
2021/11/15 12:33:09;;;;;;;0.47;0.20;;;12.30;99.90;;;;;;5084669;28;20520;-75
2021/11/15 12:35:54;;;;;;;3.50;0.52;;;12.30;99.90;;;;;;5083306;28;20028;-75
2021/11/15 12:38:50;;;;;;;0.10;0.10;;;12.20;99.90;;;;;;5087511;28;20038;-76
2021/11/15 12:41:16;;;;;;;0.30;0.30;;;12.10;99.90;;;;;;5090133;28;20035;-75
2021/11/15 12:44:04;;;;;;;2.47;0.55;;;12.20;99.90;;;;;;5071947;28;20036;-76
2021/11/15 12:46:59;;;;;;;3.55;0.75;;;12.10;99.90;;;;;;5087483;28;20517;-75
2021/11/15 12:49:41;;;;;;;2.35;0.98;;;11.90;99.90;;;;;;5040752;28;20032;-76
2021/11/15 12:52:10;;;;;;;0.10;0.10;;;11.60;99.90;;;;;;5082275;28;20081;-76
2021/11/15 12:54:54;;;;;;;0.47;0.47;;;11.40;99.90;;;;;;5089942;28;20024;-76
2021/11/15 12:57:20;;;;;;;2.28;1.75;;;11.40;99.90;;;;;;5086848;28;20024;-76
2021/11/15 12:59:48;;;;;;;3.83;0.73;;;11.40;99.90;;;;;;5090205;28;20290;-76
2021/11/15 13:02:14;;;;;;;1.10;0.30;;;11.40;99.90;;;;;;5093198;28;20031;-76
2021/11/15 13:04:40;;;;;;;0.28;0.28;;;11.50;99.90;;;;;;5085622;28;20455;-76
2021/11/15 13:07:09;;;;;;;1.13;0.30;;;11.40;99.90;;;;;;5067046;28;20745;-76